createdAt,value
2022-12-03T00:01:34.877Z,2.60
2022-12-03T00:03:36.669Z,2.28
2022-12-03T00:05:41.746Z,2.25
2022-12-03T00:07:46.583Z,2.30
2022-12-03T00:09:48.348Z,2.63
2022-12-03T00:11:49.990Z,2.30
2022-12-03T00:13:51.643Z,2.63
2022-12-03T00:15:53.277Z,2.65
2022-12-03T00:17:54.949Z,2.10
2022-12-03T00:19:56.575Z,2.42
2022-12-03T00:21:58.149Z,2.67
2022-12-03T00:24:00.153Z,2.47
2022-12-03T00:26:01.751Z,2.40
2022-12-03T00:28:03.515Z,2.30
2022-12-03T00:30:06.579Z,2.50
2022-12-03T00:32:08.246Z,2.03
2022-12-03T00:34:09.860Z,2.40
2022-12-03T00:36:11.567Z,2.35
2022-12-03T00:38:14.125Z,2.50
2022-12-03T00:40:15.841Z,2.33
2022-12-03T00:42:17.414Z,2.78
2022-12-03T00:44:19.004Z,2.08
2022-12-03T00:46:21.750Z,2.25
2022-12-03T00:48:23.669Z,2.17
2022-12-03T00:50:25.319Z,2.00
2022-12-03T00:52:26.994Z,2.42
2022-12-03T00:54:32.102Z,2.58
2022-12-03T00:56:33.985Z,2.38
2022-12-03T00:58:35.991Z,2.53
2022-12-03T01:00:38.009Z,2.45
2022-12-03T01:02:39.982Z,2.40
2022-12-03T01:04:41.759Z,2.30
2022-12-03T01:06:43.569Z,2.22
2022-12-03T01:08:45.242Z,2.08
2022-12-03T01:10:46.857Z,2.20
2022-12-03T01:12:48.510Z,1.80
2022-12-03T01:14:50.260Z,2.55
2022-12-03T01:16:51.940Z,2.22
2022-12-03T01:18:53.592Z,2.20
2022-12-03T01:20:55.226Z,2.03
2022-12-03T01:22:56.947Z,2.05
2022-12-03T01:24:58.696Z,2.30
2022-12-03T01:27:00.913Z,2.03
2022-12-03T01:29:02.709Z,2.20
2022-12-03T01:31:23.095Z,2.00
2022-12-03T01:33:24.791Z,1.88
2022-12-03T01:35:26.374Z,2.25
2022-12-03T01:37:28.111Z,2.10
2022-12-03T01:39:29.895Z,2.38
2022-12-03T01:41:33.087Z,2.13
2022-12-03T01:43:35.018Z,1.95
2022-12-03T01:45:36.803Z,2.15
2022-12-03T01:47:38.607Z,2.38
2022-12-03T01:49:52.599Z,2.30
2022-12-03T01:51:55.939Z,2.20
2022-12-03T01:53:59.031Z,2.30
2022-12-03T01:56:00.659Z,2.28
2022-12-03T01:58:02.555Z,2.28
2022-12-03T02:00:05.103Z,2.00
2022-12-03T02:02:17.438Z,2.20
2022-12-03T02:04:22.332Z,2.58
2022-12-03T02:06:27.945Z,2.20
2022-12-03T02:08:35.453Z,2.45
2022-12-03T02:10:38.364Z,2.65
2022-12-03T02:12:50.766Z,1.95
2022-12-03T02:14:53.484Z,1.88
2022-12-03T02:16:55.423Z,2.53
2022-12-03T02:18:58.023Z,2.15
2022-12-03T02:20:59.580Z,1.98
2022-12-03T02:23:28.468Z,2.20
2022-12-03T02:25:33.466Z,2.30
2022-12-03T02:27:35.158Z,2.40
2022-12-03T02:29:37.213Z,2.08
2022-12-03T02:31:39.015Z,2.50
2022-12-03T02:33:40.745Z,2.25
2022-12-03T02:35:42.550Z,2.03
2022-12-03T02:37:46.342Z,2.50
2022-12-03T02:39:51.851Z,2.40
2022-12-03T02:42:12.238Z,2.40
2022-12-03T02:44:14.082Z,1.95
2022-12-03T02:46:15.750Z,2.25
2022-12-03T02:48:26.358Z,2.95
2022-12-03T02:50:42.550Z,2.55
2022-12-03T02:52:46.257Z,2.30
2022-12-03T02:54:48.500Z,2.33
2022-12-03T02:56:50.383Z,2.30
2022-12-03T02:58:54.875Z,2.13
2022-12-03T03:00:58.411Z,2.30
2022-12-03T03:03:01.861Z,2.47
2022-12-03T03:05:06.134Z,2.17
2022-12-03T03:07:08.383Z,2.33
2022-12-03T03:09:10.089Z,2.40
2022-12-03T03:11:11.970Z,2.10
2022-12-03T03:13:16.714Z,2.03
2022-12-03T03:15:18.483Z,2.17
2022-12-03T03:17:20.181Z,2.22
2022-12-03T03:19:26.247Z,2.35
2022-12-03T03:21:28.175Z,2.10
2022-12-03T03:23:30.177Z,2.40
2022-12-03T03:25:31.943Z,2.60
2022-12-03T03:27:34.290Z,2.17
2022-12-03T03:29:36.253Z,2.30
2022-12-03T03:31:38.982Z,2.30
2022-12-03T03:33:43.187Z,2.20
2022-12-03T03:35:46.268Z,2.30
2022-12-03T03:37:47.915Z,2.28
2022-12-03T03:39:49.728Z,2.28
2022-12-03T03:41:51.584Z,2.10
2022-12-03T03:43:53.468Z,2.20
2022-12-03T03:45:55.808Z,2.38
2022-12-03T03:48:01.156Z,2.08
2022-12-03T03:50:03.206Z,2.33
2022-12-03T03:52:05.069Z,2.38
2022-12-03T03:54:07.997Z,2.13
2022-12-03T03:56:10.171Z,2.20
2022-12-03T03:58:11.912Z,2.20
2022-12-03T04:00:14.302Z,2.03
2022-12-03T04:02:24.527Z,2.33
2022-12-03T04:04:27.326Z,2.47
2022-12-03T04:06:29.018Z,2.22
2022-12-03T04:08:31.092Z,2.25
2022-12-03T04:10:51.420Z,2.47
2022-12-03T04:12:55.966Z,2.45
2022-12-03T04:14:58.015Z,2.40
2022-12-03T04:16:59.719Z,2.15
2022-12-03T04:19:01.445Z,2.20
2022-12-03T04:21:21.621Z,2.40
2022-12-03T04:23:29.254Z,2.08
2022-12-03T04:25:51.555Z,2.17
2022-12-03T04:28:11.994Z,2.35
2022-12-03T04:30:13.679Z,2.27
2022-12-03T04:32:33.761Z,2.03
2022-12-03T04:34:54.524Z,2.20
2022-12-03T04:36:56.449Z,2.63
2022-12-03T04:38:58.073Z,2.13
2022-12-03T04:41:06.017Z,2.30
2022-12-03T04:43:07.708Z,2.50
2022-12-03T04:45:09.770Z,2.22
2022-12-03T04:47:19.609Z,2.03
2022-12-03T04:49:21.690Z,2.80
2022-12-03T04:51:23.272Z,2.28
2022-12-03T04:53:24.854Z,2.03
2022-12-03T04:55:26.493Z,2.65
2022-12-03T04:57:28.067Z,2.22
2022-12-03T04:59:29.956Z,2.20
2022-12-03T05:01:31.668Z,2.15
2022-12-03T05:03:33.410Z,2.40
2022-12-03T05:05:35.049Z,2.20
2022-12-03T05:07:37.165Z,2.13
2022-12-03T05:09:38.851Z,2.30
2022-12-03T05:11:40.998Z,2.50
2022-12-03T05:13:43.228Z,2.30
2022-12-03T05:15:45.026Z,2.50
2022-12-03T05:17:46.648Z,2.35
2022-12-03T05:20:07.846Z,2.13
2022-12-03T05:22:09.474Z,2.58
2022-12-03T05:24:11.133Z,2.03
2022-12-03T05:26:12.780Z,2.55
2022-12-03T05:28:14.462Z,2.22
2022-12-03T05:30:16.327Z,2.53
2022-12-03T05:32:18.014Z,2.80
2022-12-03T05:34:19.677Z,2.78
2022-12-03T05:36:21.460Z,2.40
2022-12-03T05:38:23.114Z,2.63
2022-12-03T05:40:24.807Z,2.40
2022-12-03T05:42:44.974Z,2.35
2022-12-03T05:44:46.571Z,2.67
2022-12-03T05:46:48.218Z,2.22
2022-12-03T05:48:49.945Z,2.10
2022-12-03T05:50:51.551Z,2.58
2022-12-03T05:52:53.264Z,2.30
2022-12-03T05:54:55.097Z,2.50
2022-12-03T05:56:56.875Z,2.40
2022-12-03T05:58:58.540Z,2.00
2022-12-03T06:01:00.149Z,2.53
2022-12-03T06:03:01.819Z,2.72
2022-12-03T06:05:03.678Z,2.88
2022-12-03T06:07:09.611Z,3.38
2022-12-03T06:09:14.186Z,2.97
2022-12-03T06:11:15.887Z,2.58
2022-12-03T06:13:17.558Z,2.72
2022-12-03T06:15:20.031Z,2.88
2022-12-03T06:17:21.761Z,3.40
2022-12-03T06:19:23.397Z,2.90
2022-12-03T06:21:25.024Z,4.65
2022-12-03T06:23:26.652Z,3.33
2022-12-03T06:25:28.295Z,3.22
2022-12-03T06:27:45.036Z,3.20
2022-12-03T06:29:46.713Z,3.45
2022-12-03T06:31:48.413Z,2.92
2022-12-03T06:33:50.057Z,2.92
2022-12-03T06:35:51.639Z,3.55
2022-12-03T06:37:53.271Z,3.42
2022-12-03T06:39:54.932Z,3.38
2022-12-03T06:41:56.578Z,3.33
2022-12-03T06:43:58.227Z,2.90
2022-12-03T06:45:59.865Z,3.17
2022-12-03T06:48:01.497Z,3.58
2022-12-03T06:50:03.504Z,3.38
2022-12-03T06:52:05.363Z,3.65
2022-12-03T06:54:07.084Z,3.03
2022-12-03T06:56:08.746Z,3.10
2022-12-03T06:58:10.337Z,3.67
2022-12-03T07:00:12.586Z,3.22
2022-12-03T07:02:14.291Z,3.38
2022-12-03T07:04:16.004Z,5.15
2022-12-03T07:06:17.661Z,5.00
2022-12-03T07:08:19.370Z,4.80
2022-12-03T07:10:21.670Z,4.00
2022-12-03T07:12:23.341Z,4.78
2022-12-03T07:14:24.951Z,5.97
2022-12-03T07:16:26.851Z,6.43
2022-12-03T07:18:28.508Z,5.60
2022-12-03T07:20:30.099Z,5.78
2022-12-03T07:22:31.705Z,5.32
2022-12-03T07:24:33.396Z,5.30
2022-12-03T07:26:35.004Z,4.93
2022-12-03T07:28:36.690Z,4.60
2022-12-03T07:30:38.330Z,5.55
2022-12-03T07:32:39.930Z,4.82
2022-12-03T07:34:41.763Z,4.70
2022-12-03T07:36:43.397Z,4.72
2022-12-03T07:38:45.056Z,5.47
2022-12-03T07:40:46.757Z,5.00
2022-12-03T07:42:48.410Z,5.90
2022-12-03T07:44:50.071Z,4.55
2022-12-03T07:46:51.959Z,4.50
2022-12-03T07:48:53.709Z,5.00
2022-12-03T07:50:55.375Z,4.97
2022-12-03T07:52:56.987Z,4.75
2022-12-03T07:54:58.668Z,5.13
2022-12-03T07:57:01.923Z,4.45
2022-12-03T07:59:03.793Z,5.13
2022-12-03T08:01:05.692Z,17.48
2022-12-03T08:03:07.314Z,14.27
2022-12-03T08:05:09.161Z,11.85
2022-12-03T08:07:10.747Z,14.18
2022-12-03T08:09:16.020Z,15.05
2022-12-03T08:11:18.354Z,14.98
2022-12-03T08:13:20.022Z,13.85
2022-12-03T08:15:24.206Z,15.02
2022-12-03T08:17:26.903Z,15.65
2022-12-03T08:19:28.527Z,13.68
2022-12-03T08:21:36.024Z,15.10
2022-12-03T08:23:37.789Z,13.77
2022-12-03T08:25:39.562Z,13.77
2022-12-03T08:27:41.170Z,13.93
2022-12-03T08:29:42.781Z,13.18
2022-12-03T08:31:57.020Z,12.60
2022-12-03T08:34:31.588Z,13.63
2022-12-03T08:36:33.914Z,12.88
2022-12-03T08:38:35.552Z,12.60
2022-12-03T08:40:41.990Z,10.57
2022-12-03T08:42:43.653Z,11.13
2022-12-03T08:44:45.328Z,10.45
2022-12-03T08:46:54.312Z,10.88
2022-12-03T08:48:55.960Z,10.38
2022-12-03T08:51:18.930Z,10.50
2022-12-03T08:53:42.619Z,11.27
2022-12-03T08:55:52.705Z,10.18
2022-12-03T08:57:54.349Z,10.02
2022-12-03T09:00:19.050Z,9.73
2022-12-03T09:02:31.006Z,10.15
2022-12-03T09:04:48.130Z,9.73
2022-12-03T09:06:51.105Z,9.48
2022-12-03T09:08:52.741Z,9.98
2022-12-03T09:10:54.385Z,9.65
2022-12-03T09:12:56.579Z,9.13
2022-12-03T09:14:58.169Z,8.48
2022-12-03T09:16:59.835Z,7.75
2022-12-03T09:19:01.722Z,8.15
2022-12-03T09:21:03.369Z,8.82
2022-12-03T09:23:05.077Z,8.73
2022-12-03T09:25:07.426Z,8.10
2022-12-03T09:27:09.052Z,7.97
2022-12-03T09:29:12.609Z,8.98
2022-12-03T09:31:15.808Z,8.85
2022-12-03T09:33:17.478Z,8.00
2022-12-03T09:35:19.318Z,8.30
2022-12-03T09:37:22.144Z,8.32
2022-12-03T09:39:23.830Z,7.82
2022-12-03T09:41:26.115Z,7.53
2022-12-03T09:43:49.433Z,7.53
2022-12-03T09:45:52.474Z,8.43
2022-12-03T09:47:55.158Z,7.40
2022-12-03T09:49:58.016Z,7.50
2022-12-03T09:52:02.639Z,7.50
2022-12-03T09:54:06.613Z,7.10
2022-12-03T09:56:15.158Z,7.40
2022-12-03T09:58:18.520Z,7.38
2022-12-03T10:00:26.124Z,7.03
2022-12-03T10:02:30.502Z,7.13
2022-12-03T10:04:32.220Z,6.68
2022-12-03T10:06:33.904Z,6.88
2022-12-03T10:08:35.625Z,7.32
2022-12-03T10:10:40.378Z,7.22
2022-12-03T10:12:42.103Z,6.57
2022-12-03T10:14:43.842Z,7.05
2022-12-03T10:16:46.003Z,5.93
2022-12-03T10:18:51.914Z,6.57
2022-12-03T10:20:54.102Z,7.10
2022-12-03T10:22:55.782Z,6.05
2022-12-03T10:25:07.565Z,6.78
2022-12-03T10:27:23.902Z,7.40
2022-12-03T10:29:34.976Z,8.18
2022-12-03T10:33:41.747Z,6.95
2022-12-03T10:35:43.350Z,6.70
2022-12-03T10:38:06.319Z,7.55
2022-12-03T10:40:12.233Z,7.07
2022-12-03T10:42:16.218Z,6.75
2022-12-03T10:44:25.582Z,6.95
2022-12-03T10:46:27.323Z,6.45
2022-12-03T10:48:29.446Z,6.43
2022-12-03T10:50:31.608Z,6.50
2022-12-03T10:52:33.420Z,6.35
2022-12-03T10:54:35.710Z,5.88
2022-12-03T10:56:37.366Z,6.20
2022-12-03T10:58:40.463Z,6.45
2022-12-03T11:00:42.077Z,6.25
2022-12-03T11:02:44.281Z,6.55
2022-12-03T11:04:45.982Z,5.72
2022-12-03T11:06:48.003Z,6.93
2022-12-03T11:08:56.834Z,7.75
2022-12-03T11:11:30.648Z,8.98
2022-12-03T11:13:35.115Z,8.48
2022-12-03T11:15:45.163Z,9.30
2022-12-03T11:17:52.069Z,9.70
2022-12-03T11:19:53.910Z,9.73
2022-12-03T11:22:54.093Z,8.98
2022-12-03T11:25:31.284Z,7.95
2022-12-03T11:27:32.962Z,8.00
2022-12-03T11:29:49.845Z,7.00
2022-12-03T11:31:51.518Z,8.75
2022-12-03T11:34:19.411Z,6.75
2022-12-03T11:36:31.921Z,6.93
2022-12-03T11:38:38.313Z,6.53
2022-12-03T11:40:40.029Z,8.60
2022-12-03T11:42:41.864Z,6.75
2022-12-03T11:44:43.516Z,7.18
2022-12-03T11:46:47.186Z,7.63
2022-12-03T11:48:52.354Z,6.55
2022-12-03T11:50:54.061Z,7.68
2022-12-03T11:53:00.553Z,7.40
2022-12-03T11:55:15.955Z,8.73
2022-12-03T11:57:31.880Z,6.82
2022-12-03T11:59:33.512Z,6.50
2022-12-03T12:01:39.323Z,6.97
2022-12-03T12:03:50.551Z,7.47
2022-12-03T12:06:24.821Z,6.50
2022-12-03T12:08:26.482Z,6.10
2022-12-03T12:10:48.668Z,6.28
2022-12-03T12:12:54.885Z,5.70
2022-12-03T12:14:58.614Z,6.10
2022-12-03T12:17:03.210Z,6.40
2022-12-03T12:19:32.798Z,5.85
2022-12-03T12:21:48.059Z,6.30
2022-12-03T12:23:49.783Z,6.68
2022-12-03T12:25:54.350Z,6.03
2022-12-03T12:27:57.546Z,6.03
2022-12-03T12:30:23.133Z,5.75
2022-12-03T12:32:28.386Z,5.63
2022-12-03T12:34:31.261Z,5.95
2022-12-03T12:36:34.181Z,5.05
2022-12-03T12:38:35.817Z,5.53
2022-12-03T12:40:39.908Z,6.22
2022-12-03T12:42:52.982Z,5.55
2022-12-03T12:44:56.499Z,5.93
2022-12-03T12:47:01.208Z,5.13
2022-12-03T12:49:11.326Z,5.75
2022-12-03T12:51:15.518Z,5.18
2022-12-03T12:53:20.917Z,5.07
2022-12-03T12:55:23.376Z,4.82
2022-12-03T12:57:25.031Z,5.55
2022-12-03T12:59:26.805Z,5.30
2022-12-03T13:01:30.412Z,5.07
2022-12-03T13:03:38.882Z,4.95
2022-12-03T13:05:45.853Z,5.35
2022-12-03T13:07:48.002Z,6.28
2022-12-03T13:09:55.583Z,6.07
2022-12-03T13:11:59.449Z,6.05
2022-12-03T13:14:22.678Z,5.88
2022-12-03T13:16:32.332Z,5.57
2022-12-03T13:18:41.555Z,5.38
2022-12-03T13:20:43.234Z,5.55
2022-12-03T13:22:45.590Z,5.93
2022-12-03T13:24:51.509Z,5.55
2022-12-03T13:26:53.233Z,5.95
2022-12-03T13:28:57.342Z,5.60
2022-12-03T13:31:28.790Z,5.15
2022-12-03T13:35:35.314Z,5.32
2022-12-03T13:37:37.417Z,5.88
2022-12-03T13:39:42.406Z,5.43
2022-12-03T13:42:07.578Z,5.30
2022-12-03T13:44:19.830Z,5.68
2022-12-03T13:46:21.535Z,5.63
2022-12-03T13:48:29.417Z,5.15
2022-12-03T13:50:38.607Z,5.90
2022-12-03T13:52:40.234Z,7.13
2022-12-03T13:54:41.958Z,6.18
2022-12-03T13:56:43.557Z,5.93
2022-12-03T13:58:45.206Z,6.28
2022-12-03T14:00:46.884Z,4.78
2022-12-03T14:02:48.800Z,5.45
2022-12-03T14:04:54.103Z,5.25
2022-12-03T14:06:58.538Z,5.65
2022-12-03T14:09:00.474Z,5.72
2022-12-03T14:11:02.245Z,5.82
2022-12-03T14:13:03.902Z,5.93
2022-12-03T14:15:06.619Z,5.20
2022-12-03T14:17:10.184Z,5.82
2022-12-03T14:19:11.930Z,5.57
2022-12-03T14:21:13.583Z,5.15
2022-12-03T14:23:15.731Z,5.68
2022-12-03T14:25:17.466Z,6.00
2022-12-03T14:27:19.751Z,10.45
2022-12-03T14:29:21.401Z,7.82
2022-12-03T14:31:23.212Z,5.78
2022-12-03T14:33:24.905Z,6.22
2022-12-03T14:35:26.608Z,6.10
2022-12-03T14:37:28.232Z,5.65
2022-12-03T14:39:29.849Z,6.03
2022-12-03T14:41:50.009Z,6.32
2022-12-03T14:43:51.626Z,5.55
2022-12-03T14:45:53.360Z,5.80
2022-12-03T14:47:55.260Z,5.43
2022-12-03T14:49:57.312Z,5.78
2022-12-03T14:51:59.095Z,5.35
2022-12-03T14:54:00.785Z,5.28
2022-12-03T14:56:02.391Z,5.60
2022-12-03T14:58:03.996Z,5.35
2022-12-03T15:00:07.261Z,5.80
2022-12-03T15:02:10.234Z,5.22
2022-12-03T15:04:11.959Z,5.45
2022-12-03T15:06:13.557Z,5.40
2022-12-03T15:08:15.261Z,5.13
2022-12-03T15:10:17.012Z,5.60
2022-12-03T15:12:18.719Z,5.63
2022-12-03T15:14:20.375Z,5.60
2022-12-03T15:16:22.271Z,5.43
2022-12-03T15:18:23.930Z,5.38
2022-12-03T15:20:25.597Z,5.40
2022-12-03T15:22:27.266Z,6.00
2022-12-03T15:24:28.978Z,6.15
2022-12-03T15:26:30.706Z,6.20
2022-12-03T15:28:32.391Z,5.80
2022-12-03T15:30:36.922Z,5.80
2022-12-03T15:32:38.552Z,6.25
2022-12-03T15:34:40.184Z,7.88
2022-12-03T15:36:41.896Z,16.40
2022-12-03T15:38:43.521Z,17.95
2022-12-03T15:40:45.298Z,16.58
2022-12-03T15:42:46.918Z,16.23
2022-12-03T15:44:48.633Z,14.30
2022-12-03T15:46:50.254Z,15.40
2022-12-03T15:48:52.105Z,14.73
2022-12-03T15:50:53.735Z,16.98
2022-12-03T15:52:55.646Z,24.30
2022-12-03T15:54:57.438Z,32.08
2022-12-03T15:56:59.143Z,32.58
2022-12-03T15:59:00.803Z,26.75
2022-12-03T16:01:02.557Z,24.73
2022-12-03T16:03:04.265Z,21.73
2022-12-03T16:05:11.419Z,21.75
2022-12-03T16:07:13.784Z,24.33
2022-12-03T16:09:15.379Z,23.20
2022-12-03T16:11:17.163Z,26.48
2022-12-03T16:13:18.845Z,23.35
2022-12-03T16:15:25.230Z,27.52
2022-12-03T16:17:28.830Z,23.75
2022-12-03T16:19:30.493Z,22.55
2022-12-03T16:21:32.089Z,23.55
2022-12-03T16:23:33.975Z,24.63
2022-12-03T16:25:35.738Z,25.02
2022-12-03T16:27:38.173Z,25.83
2022-12-03T16:29:39.814Z,25.42
2022-12-03T16:31:41.693Z,26.08
2022-12-03T16:33:43.349Z,25.02
2022-12-03T16:35:44.989Z,23.10
2022-12-03T16:37:46.714Z,23.63
2022-12-03T16:39:48.854Z,22.88
2022-12-03T16:41:50.482Z,21.13
2022-12-03T16:43:52.704Z,20.80
2022-12-03T16:46:20.138Z,20.85
2022-12-03T16:48:22.655Z,19.77
2022-12-03T16:50:29.491Z,19.63
2022-12-03T16:52:31.794Z,19.83
2022-12-03T16:54:33.431Z,26.10
2022-12-03T16:56:35.045Z,67.55
2022-12-03T16:58:37.037Z,91.40
2022-12-03T17:00:38.722Z,118.95
2022-12-03T17:02:40.404Z,127.50
2022-12-03T17:04:42.132Z,126.88
2022-12-03T17:06:43.707Z,128.30
2022-12-03T17:08:49.378Z,121.32
2022-12-03T17:10:51.472Z,129.23
2022-12-03T17:13:09.958Z,121.18
2022-12-03T17:15:12.310Z,115.20
2022-12-03T17:17:13.971Z,111.05
2022-12-03T17:19:16.240Z,106.90
2022-12-03T17:21:17.913Z,102.78
2022-12-03T17:23:19.658Z,97.15
2022-12-03T17:25:21.305Z,94.20
2022-12-03T17:27:24.802Z,92.03
2022-12-03T17:29:26.452Z,87.72
2022-12-03T17:31:28.317Z,84.47
2022-12-03T17:33:30.066Z,82.30
2022-12-03T17:35:31.737Z,78.05
2022-12-03T17:37:33.463Z,76.97
2022-12-03T17:39:35.114Z,78.78
2022-12-03T17:41:36.765Z,72.22
2022-12-03T17:43:38.404Z,71.72
2022-12-03T17:45:40.397Z,68.78
2022-12-03T17:47:42.038Z,66.45
2022-12-03T17:49:43.665Z,65.82
2022-12-03T17:51:45.386Z,62.83
2022-12-03T17:53:47.051Z,55.08
2022-12-03T17:55:48.642Z,35.40
2022-12-03T17:57:50.325Z,47.15
2022-12-03T17:59:52.385Z,47.45
2022-12-03T18:01:54.377Z,43.80
2022-12-03T18:03:56.191Z,40.70
2022-12-03T18:05:58.046Z,39.67
2022-12-03T18:07:59.700Z,39.35
2022-12-03T18:10:01.527Z,41.13
2022-12-03T18:12:03.190Z,39.50
2022-12-03T18:14:04.918Z,37.75
2022-12-03T18:16:06.818Z,36.28
2022-12-03T18:18:08.538Z,37.63
2022-12-03T18:20:10.295Z,34.10
2022-12-03T18:22:12.875Z,34.72
2022-12-03T18:24:14.661Z,33.63
2022-12-03T18:26:16.440Z,33.45
2022-12-03T18:28:18.069Z,32.83
2022-12-03T18:30:19.831Z,30.15
2022-12-03T18:32:28.821Z,30.98
2022-12-03T18:34:30.741Z,28.08
2022-12-03T18:36:36.147Z,28.00
2022-12-03T18:38:37.860Z,28.90
2022-12-03T18:40:40.113Z,27.17
2022-12-03T18:42:41.815Z,26.95
2022-12-03T18:44:49.436Z,26.67
2022-12-03T18:46:54.230Z,26.52
2022-12-03T18:48:56.370Z,25.75
2022-12-03T18:50:58.066Z,25.00
2022-12-03T18:52:59.714Z,22.85
2022-12-03T18:55:01.523Z,23.30
2022-12-03T18:57:03.229Z,22.38
2022-12-03T18:59:06.515Z,21.60
2022-12-03T19:01:15.183Z,21.42
2022-12-03T19:03:16.899Z,20.67
2022-12-03T19:05:18.610Z,20.02
2022-12-03T19:07:20.272Z,19.85
2022-12-03T19:09:22.170Z,18.73
2022-12-03T19:11:24.199Z,18.30
2022-12-03T19:13:27.346Z,19.40
2022-12-03T19:15:28.939Z,17.00
2022-12-03T19:17:31.020Z,17.65
2022-12-03T19:19:32.807Z,16.50
2022-12-03T19:21:34.726Z,16.40
2022-12-03T19:23:36.785Z,16.48
2022-12-03T19:25:38.690Z,16.92
2022-12-03T19:27:40.358Z,15.27
2022-12-03T19:29:42.021Z,15.35
2022-12-03T19:31:43.770Z,15.10
2022-12-03T19:33:46.149Z,15.65
2022-12-03T19:35:47.746Z,16.00
2022-12-03T19:37:50.024Z,15.35
2022-12-03T19:39:54.897Z,14.43
2022-12-03T19:41:56.724Z,15.27
2022-12-03T19:43:58.772Z,13.65
2022-12-03T19:46:08.945Z,13.95
2022-12-03T19:48:10.626Z,13.53
2022-12-03T19:50:19.291Z,12.68
2022-12-03T19:52:24.111Z,13.20
2022-12-03T19:54:25.798Z,12.60
2022-12-03T19:56:30.149Z,12.65
2022-12-03T19:58:32.625Z,12.50
2022-12-03T20:00:35.590Z,12.52
2022-12-03T20:02:37.366Z,11.98
2022-12-03T20:04:39.001Z,11.30
2022-12-03T20:06:40.758Z,11.57
2022-12-03T20:08:42.446Z,10.77
2022-12-03T20:10:44.125Z,10.52
2022-12-03T20:12:45.871Z,10.60
2022-12-03T20:14:47.494Z,10.27
2022-12-03T20:16:49.276Z,10.75
2022-12-03T20:18:51.936Z,9.82
2022-12-03T20:21:00.482Z,10.55
2022-12-03T20:23:02.150Z,10.18
2022-12-03T20:25:04.111Z,10.30
2022-12-03T20:27:06.050Z,9.38
2022-12-03T20:29:07.937Z,10.23
2022-12-03T20:31:14.828Z,9.90
2022-12-03T20:33:16.473Z,10.57
2022-12-03T20:35:18.198Z,9.95
2022-12-03T20:37:19.861Z,8.70
2022-12-03T20:39:21.514Z,9.18
2022-12-03T20:41:23.375Z,9.30
2022-12-03T20:43:25.065Z,9.63
2022-12-03T20:45:27.231Z,9.48
2022-12-03T20:47:29.013Z,8.75
2022-12-03T20:49:30.647Z,8.93
2022-12-03T20:51:32.656Z,8.98
2022-12-03T20:53:35.626Z,8.57
2022-12-03T20:55:37.219Z,8.10
2022-12-03T20:57:38.853Z,8.27
2022-12-03T20:59:40.471Z,8.27
2022-12-03T21:01:43.650Z,7.70
2022-12-03T21:03:46.341Z,7.70
2022-12-03T21:05:48.030Z,7.78
2022-12-03T21:07:50.589Z,7.30
2022-12-03T21:09:52.505Z,7.68
2022-12-03T21:11:54.298Z,7.30
2022-12-03T21:13:56.758Z,7.53
2022-12-03T21:16:07.024Z,7.80
2022-12-03T21:18:10.130Z,7.10
2022-12-03T21:20:13.702Z,6.63
2022-12-03T21:22:18.312Z,6.97
2022-12-03T21:24:20.145Z,6.90
2022-12-03T21:26:23.211Z,7.15
2022-12-03T21:28:24.874Z,6.18
2022-12-03T21:30:26.639Z,6.18
2022-12-03T21:32:28.325Z,6.88
2022-12-03T21:34:35.774Z,6.68
2022-12-03T21:36:38.313Z,6.60
2022-12-03T21:38:41.279Z,5.80
2022-12-03T21:40:42.926Z,6.15
2022-12-03T21:42:44.582Z,5.97
2022-12-03T21:44:46.199Z,6.22
2022-12-03T21:47:11.018Z,6.10
2022-12-03T21:49:10.227Z,6.05
2022-12-03T21:51:14.054Z,6.18
2022-12-03T21:53:15.717Z,6.10
2022-12-03T21:55:17.438Z,5.70
2022-12-03T21:57:19.347Z,6.18
2022-12-03T21:59:21.066Z,6.20
2022-12-03T22:01:24.232Z,5.68
2022-12-03T22:03:25.965Z,5.90
2022-12-03T22:05:27.657Z,5.90
2022-12-03T22:07:32.027Z,6.05
2022-12-03T22:09:33.773Z,5.38
2022-12-03T22:11:35.395Z,5.55
2022-12-03T22:13:41.049Z,5.65
2022-12-03T22:15:42.732Z,5.78
2022-12-03T22:17:44.420Z,5.85
2022-12-03T22:19:46.073Z,5.40
2022-12-03T22:21:47.671Z,5.88
2022-12-03T22:23:49.293Z,5.88
2022-12-03T22:26:03.178Z,5.82
2022-12-03T22:28:04.906Z,5.60
2022-12-03T22:30:07.077Z,5.43
2022-12-03T22:32:08.741Z,5.60
2022-12-03T22:34:10.393Z,5.57
2022-12-03T22:36:18.313Z,5.57
2022-12-03T22:38:22.525Z,5.53
2022-12-03T22:40:24.173Z,5.22
2022-12-03T22:42:25.855Z,5.60
2022-12-03T22:44:27.462Z,5.50
2022-12-03T22:46:29.139Z,5.57
2022-12-03T22:48:33.494Z,5.38
2022-12-03T22:50:40.429Z,5.55
2022-12-03T22:52:42.093Z,5.18
2022-12-03T22:54:46.747Z,5.90
2022-12-03T22:56:48.486Z,5.68
2022-12-03T22:58:50.163Z,5.57
2022-12-03T23:00:52.651Z,5.65
2022-12-03T23:02:54.330Z,5.50
2022-12-03T23:04:56.082Z,5.53
2022-12-03T23:06:57.746Z,5.25
2022-12-03T23:08:59.496Z,5.43
2022-12-03T23:11:01.134Z,5.60
2022-12-03T23:13:03.300Z,5.65
2022-12-03T23:15:05.892Z,5.10
2022-12-03T23:17:07.548Z,5.13
2022-12-03T23:19:09.181Z,5.72
2022-12-03T23:21:23.918Z,5.43
2022-12-03T23:23:28.887Z,5.35
2022-12-03T23:25:30.515Z,5.50
2022-12-03T23:27:32.193Z,5.53
2022-12-03T23:29:35.022Z,5.22
2022-12-03T23:31:36.823Z,5.15
2022-12-03T23:33:38.773Z,4.93
2022-12-03T23:35:40.385Z,5.78
2022-12-03T23:37:44.386Z,5.55
2022-12-03T23:39:48.181Z,4.82
2022-12-03T23:41:51.391Z,5.38
2022-12-03T23:43:53.436Z,5.00
2022-12-03T23:45:55.089Z,5.10
2022-12-03T23:47:58.286Z,5.28
2022-12-03T23:50:00.162Z,5.38
2022-12-03T23:52:01.768Z,5.55
2022-12-03T23:54:03.402Z,4.95
2022-12-03T23:56:06.866Z,5.10
2022-12-03T23:58:08.460Z,5.22
